createdAt,value
2023-04-02T00:00:06.428Z,101603.50
2023-04-02T00:02:33.839Z,101612.97
2023-04-02T00:05:19.819Z,101616.28
2023-04-02T00:07:51.808Z,101617.81
2023-04-02T00:10:35.866Z,101622.13
2023-04-02T00:13:04.082Z,101633.44
2023-04-02T00:15:31.764Z,101634.97
2023-04-02T00:18:00.185Z,101645.25
2023-04-02T00:20:28.712Z,101643.28
2023-04-02T00:22:56.758Z,101653.31
2023-04-02T00:25:28.196Z,101650.03
2023-04-02T00:27:56.208Z,101657.41
2023-04-02T00:30:23.214Z,101666.63
2023-04-02T00:32:50.052Z,101668.13
2023-04-02T00:35:26.196Z,101673.34
2023-04-02T00:37:53.437Z,101683.72
2023-04-02T00:40:26.960Z,101686.25
2023-04-02T00:42:56.112Z,101693.38
2023-04-02T00:45:29.416Z,101695.91
2023-04-02T00:48:13.339Z,101699.28
2023-04-02T00:50:42.978Z,101712.16
2023-04-02T00:53:17.514Z,101710.00
2023-04-02T00:55:44.437Z,101712.31
2023-04-02T00:58:34.355Z,101713.81
2023-04-02T01:01:01.717Z,101727.28
2023-04-02T01:03:39.290Z,101733.63
2023-04-02T01:06:11.113Z,101743.28
2023-04-02T01:08:56.618Z,101745.59
2023-04-02T01:12:08.344Z,101745.72
2023-04-02T01:14:40.904Z,101752.84
2023-04-02T01:17:18.743Z,101761.47
2023-04-02T01:20:08.041Z,101762.63
2023-04-02T01:22:35.335Z,101768.63
2023-04-02T01:25:04.756Z,101773.78
2023-04-02T01:27:39.934Z,101781.38
2023-04-02T01:30:08.162Z,101783.78
2023-04-02T01:32:35.805Z,101785.50
2023-04-02T01:35:02.560Z,101795.88
2023-04-02T01:37:58.272Z,101798.16
2023-04-02T01:40:46.451Z,101800.00
2023-04-02T01:43:33.383Z,101802.88
2023-04-02T01:46:05.957Z,101806.78
2023-04-02T01:48:32.819Z,101820.19
2023-04-02T01:51:01.096Z,101814.34
2023-04-02T01:53:30.525Z,101821.00
2023-04-02T01:56:00.181Z,101827.00
2023-04-02T01:58:31.479Z,101827.56
2023-04-02T02:01:12.524Z,101839.84
2023-04-02T02:03:42.303Z,101851.22
2023-04-02T02:06:13.040Z,101843.19
2023-04-02T02:09:03.968Z,101853.63
2023-04-02T02:11:32.559Z,101850.75
2023-04-02T02:14:05.791Z,101847.19
2023-04-02T02:16:41.944Z,101861.44
2023-04-02T02:19:21.975Z,101866.72
2023-04-02T02:21:56.666Z,101866.34
2023-04-02T02:24:31.840Z,101874.84
2023-04-02T02:27:13.672Z,101881.16
2023-04-02T02:29:42.987Z,101877.50
2023-04-02T02:32:13.146Z,101880.75
2023-04-02T02:34:46.608Z,101885.78
2023-04-02T02:37:23.603Z,101895.56
2023-04-02T02:39:55.192Z,101903.03
2023-04-02T02:42:25.127Z,101901.81
2023-04-02T02:44:54.329Z,101908.72
2023-04-02T02:47:29.592Z,101912.81
2023-04-02T02:50:07.343Z,101922.59
2023-04-02T02:52:38.694Z,101921.53
2023-04-02T02:55:10.935Z,101920.16
2023-04-02T02:57:43.420Z,101931.41
2023-04-02T03:00:16.268Z,101934.84
2023-04-02T03:02:44.969Z,101940.94
2023-04-02T03:05:19.413Z,101946.69
2023-04-02T03:07:46.318Z,101955.63
2023-04-02T03:10:13.346Z,101963.56
2023-04-02T03:12:54.870Z,101969.97
2023-04-02T03:15:34.061Z,101969.38
2023-04-02T03:18:08.854Z,101968.63
2023-04-02T03:20:48.177Z,101975.19
2023-04-02T03:23:28.057Z,101979.50
2023-04-02T03:26:16.435Z,101979.34
2023-04-02T03:28:47.770Z,101981.63
2023-04-02T03:31:24.749Z,101990.94
2023-04-02T03:33:56.957Z,101994.03
2023-04-02T03:36:31.100Z,101994.03
2023-04-02T03:39:12.373Z,102004.59
2023-04-02T03:41:48.044Z,102009.28
2023-04-02T03:44:26.260Z,102021.09
2023-04-02T03:46:57.817Z,102022.13
2023-04-02T03:49:31.507Z,102027.41
2023-04-02T03:52:13.873Z,102029.22
2023-04-02T03:54:53.822Z,102039.22
2023-04-02T03:57:37.039Z,102040.88
2023-04-02T04:00:17.513Z,102051.88
2023-04-02T04:02:55.030Z,102056.59
2023-04-02T04:05:28.864Z,102059.63
2023-04-02T04:08:02.408Z,102072.69
2023-04-02T04:10:30.723Z,102081.25
2023-04-02T04:13:06.056Z,102080.88
2023-04-02T04:15:43.093Z,102084.97
2023-04-02T04:18:35.166Z,102096.16
2023-04-02T04:21:05.827Z,102103.31
2023-04-02T04:23:36.326Z,102103.31
2023-04-02T04:26:12.061Z,102112.44
2023-04-02T04:28:47.834Z,102121.81
2023-04-02T04:31:18.210Z,102124.06
2023-04-02T04:33:50.778Z,102132.19
2023-04-02T04:36:32.933Z,102126.31
2023-04-02T04:39:06.339Z,102138.34
2023-04-02T04:41:37.796Z,102142.19
2023-04-02T04:44:08.130Z,102140.78
2023-04-02T04:46:58.023Z,102149.72
2023-04-02T04:49:28.383Z,102153.78
2023-04-02T04:51:58.727Z,102164.56
2023-04-02T04:54:29.156Z,102165.16
2023-04-02T04:57:01.339Z,102173.47
2023-04-02T04:59:42.942Z,102172.06
2023-04-02T05:02:20.197Z,102177.94
2023-04-02T05:04:52.302Z,102181.41
2023-04-02T05:07:26.182Z,102189.94
2023-04-02T05:10:18.800Z,102205.59
2023-04-02T05:12:59.753Z,102199.06
2023-04-02T05:15:36.366Z,102204.13
2023-04-02T05:18:42.018Z,102219.59
2023-04-02T05:21:21.061Z,102221.19
2023-04-02T05:24:18.221Z,102231.13
2023-04-02T05:26:47.781Z,102228.47
2023-04-02T05:29:22.776Z,102229.91
2023-04-02T05:32:04.356Z,102243.91
2023-04-02T05:34:37.341Z,102246.53
2023-04-02T05:37:07.044Z,102247.75
2023-04-02T05:39:34.180Z,102260.34
2023-04-02T05:42:06.609Z,102264.38
2023-04-02T05:44:49.022Z,102269.44
2023-04-02T05:47:23.140Z,102273.47
2023-04-02T05:50:12.048Z,102280.19
2023-04-02T05:52:52.066Z,102285.00
2023-04-02T05:56:03.628Z,102288.63
2023-04-02T05:58:48.334Z,102282.72
2023-04-02T06:01:29.674Z,102292.84
2023-04-02T06:04:28.509Z,102297.69
2023-04-02T06:07:12.436Z,102302.97
2023-04-02T06:09:56.674Z,102313.75
2023-04-02T06:12:38.316Z,102312.91
2023-04-02T06:15:07.017Z,102326.09
2023-04-02T06:17:46.913Z,102324.22
2023-04-02T06:20:16.894Z,102331.72
2023-04-02T06:22:47.514Z,102340.63
2023-04-02T06:25:33.110Z,102341.81
2023-04-02T06:28:04.044Z,102344.44
2023-04-02T06:30:37.835Z,102353.31
2023-04-02T06:33:05.118Z,102358.00
2023-04-02T06:35:34.934Z,102357.75
2023-04-02T06:38:06.201Z,102371.88
2023-04-02T06:40:52.339Z,102377.53
2023-04-02T06:43:33.706Z,102384.19
2023-04-02T06:46:06.347Z,102383.31
2023-04-02T06:48:34.537Z,102385.69
2023-04-02T06:51:08.462Z,102386.50
2023-04-02T06:53:47.749Z,102397.91
2023-04-02T06:56:48.016Z,102402.91
2023-04-02T06:59:16.615Z,102403.91
2023-04-02T07:02:16.813Z,102410.19
2023-04-02T07:04:43.770Z,102419.53
2023-04-02T07:07:10.488Z,102422.16
2023-04-02T07:09:37.167Z,102420.91
2023-04-02T07:12:11.552Z,102427.38
2023-04-02T07:14:38.436Z,102438.28
2023-04-02T07:17:05.238Z,102444.34
2023-04-02T07:19:31.982Z,102443.59
2023-04-02T07:21:59.147Z,102448.22
2023-04-02T07:24:25.803Z,102454.16
2023-04-02T07:26:52.485Z,102448.94
2023-04-02T07:29:20.067Z,102448.66
2023-04-02T07:31:46.926Z,102452.44
2023-04-02T07:34:13.858Z,102459.63
2023-04-02T07:36:40.737Z,102466.03
2023-04-02T07:39:07.525Z,102473.56
2023-04-02T07:41:34.173Z,102463.31
2023-04-02T07:44:00.917Z,102469.69
2023-04-02T07:46:27.630Z,102478.84
2023-04-02T07:48:54.417Z,102479.34
2023-04-02T07:51:24.254Z,102490.56
2023-04-02T07:53:56.277Z,102481.88
2023-04-02T07:56:25.163Z,102491.69
2023-04-02T07:58:51.973Z,102485.59
2023-04-02T08:01:27.001Z,102478.47
2023-04-02T08:03:55.286Z,102493.34
2023-04-02T08:06:23.065Z,102494.53
2023-04-02T08:08:50.971Z,102499.69
2023-04-02T08:11:17.784Z,102502.09
2023-04-02T08:13:44.751Z,102510.56
2023-04-02T08:16:11.959Z,102515.97
2023-04-02T08:18:39.132Z,102515.31
2023-04-02T08:21:08.838Z,102519.59
2023-04-02T08:23:36.185Z,102523.69
2023-04-02T08:26:03.546Z,102518.13
2023-04-02T08:28:30.396Z,102522.47
2023-04-02T08:30:57.292Z,102533.31
2023-04-02T08:33:24.034Z,102527.56
2023-04-02T08:35:51.362Z,102534.97
2023-04-02T08:38:21.760Z,102544.97
2023-04-02T08:40:56.366Z,102541.97
2023-04-02T08:43:39.120Z,102536.19
2023-04-02T08:46:08.914Z,102545.78
2023-04-02T08:48:40.751Z,102543.47
2023-04-02T08:51:23.352Z,102552.16
2023-04-02T08:53:52.898Z,102546.34
2023-04-02T08:56:29.603Z,102555.97
2023-04-02T08:59:25.978Z,102566.59
2023-04-02T09:01:57.958Z,102569.25
2023-04-02T09:04:26.738Z,102565.59
2023-04-02T09:06:56.847Z,102571.66
2023-04-02T09:09:25.079Z,102578.31
2023-04-02T09:12:04.284Z,102579.16
2023-04-02T09:14:42.343Z,102581.34
2023-04-02T09:17:21.427Z,102587.03
2023-04-02T09:20:19.831Z,102591.38
2023-04-02T09:22:48.803Z,102592.88
2023-04-02T09:25:21.424Z,102593.66
2023-04-02T09:27:54.751Z,102602.53
2023-04-02T09:30:33.710Z,102604.38
2023-04-02T09:33:08.049Z,102603.88
2023-04-02T09:35:37.810Z,102608.81
2023-04-02T09:38:22.100Z,102609.00
2023-04-02T09:41:02.933Z,102608.41
2023-04-02T09:43:38.267Z,102609.03
2023-04-02T09:46:06.716Z,102609.75
2023-04-02T09:48:40.950Z,102621.06
2023-04-02T09:51:16.607Z,102617.63
2023-04-02T09:53:46.023Z,102616.09
2023-04-02T09:56:20.023Z,102626.25
2023-04-02T09:59:04.477Z,102627.72
2023-04-02T10:01:35.768Z,102623.00
2023-04-02T10:04:04.972Z,102626.88
2023-04-02T10:06:34.218Z,102635.72
2023-04-02T10:09:21.741Z,102629.81
2023-04-02T10:11:50.537Z,102641.13
2023-04-02T10:14:24.336Z,102650.50
2023-04-02T10:17:12.126Z,102657.19
2023-04-02T10:20:06.542Z,102661.53
2023-04-02T10:22:33.436Z,102654.16
2023-04-02T10:25:00.149Z,102664.34
2023-04-02T10:27:44.944Z,102664.53
2023-04-02T10:30:16.135Z,102670.66
2023-04-02T10:33:03.526Z,102679.25
2023-04-02T10:35:47.432Z,102679.97
2023-04-02T10:38:34.215Z,102676.88
2023-04-02T10:41:19.062Z,102677.47
2023-04-02T10:43:55.911Z,102680.84
2023-04-02T10:46:33.535Z,102676.22
2023-04-02T10:49:13.993Z,102678.25
2023-04-02T10:51:59.435Z,102671.38
2023-04-02T10:54:44.536Z,102667.28
2023-04-02T10:57:36.061Z,102670.75
2023-04-02T11:00:11.592Z,102672.38
2023-04-02T11:03:03.152Z,102681.41
2023-04-02T11:05:46.916Z,102680.28
2023-04-02T11:08:48.988Z,102685.84
2023-04-02T11:11:20.304Z,102687.88
2023-04-02T11:13:55.858Z,102694.22
2023-04-02T11:16:23.621Z,102697.16
2023-04-02T11:19:19.086Z,102705.75
2023-04-02T11:21:59.599Z,102702.72
2023-04-02T11:24:30.598Z,102713.47
2023-04-02T11:27:14.598Z,102712.84
2023-04-02T11:29:45.114Z,102713.91
2023-04-02T11:32:22.161Z,102720.56
2023-04-02T11:34:56.387Z,102723.09
2023-04-02T11:37:39.859Z,102731.59
2023-04-02T11:40:14.058Z,102727.69
2023-04-02T11:42:41.080Z,102733.03
2023-04-02T11:45:22.977Z,102733.59
2023-04-02T11:48:08.473Z,102734.69
2023-04-02T11:50:40.579Z,102739.34
2023-04-02T11:53:16.461Z,102743.72
2023-04-02T11:55:44.755Z,102746.19
2023-04-02T11:58:29.423Z,102744.66
2023-04-02T12:01:20.990Z,102744.09
2023-04-02T12:04:02.670Z,102739.47
2023-04-02T12:06:47.601Z,102746.28
2023-04-02T12:09:28.134Z,102751.06
2023-04-02T12:11:58.180Z,102751.06
2023-04-02T12:14:36.826Z,102757.28
2023-04-02T12:17:21.742Z,102756.38
2023-04-02T12:20:20.525Z,102764.06
2023-04-02T12:22:51.185Z,102761.31
2023-04-02T12:25:33.394Z,102768.50
2023-04-02T12:28:14.719Z,102759.47
2023-04-02T12:30:41.854Z,102754.97
2023-04-02T12:33:20.663Z,102757.88
2023-04-02T12:35:49.376Z,102757.50
2023-04-02T12:38:26.027Z,102765.41
2023-04-02T12:41:04.896Z,102760.81
2023-04-02T12:43:34.101Z,102766.16
2023-04-02T12:46:06.660Z,102768.31
2023-04-02T12:48:35.098Z,102778.63
2023-04-02T12:51:04.343Z,102775.72
2023-04-02T12:53:40.646Z,102784.53
2023-04-02T12:56:11.321Z,102772.69
2023-04-02T12:58:41.654Z,102780.16
2023-04-02T13:01:18.742Z,102774.19
2023-04-02T13:04:07.308Z,102777.13
2023-04-02T13:06:35.228Z,102789.19
2023-04-02T13:09:05.369Z,102782.63
2023-04-02T13:11:41.716Z,102777.72
2023-04-02T13:14:18.859Z,102779.41
2023-04-02T13:16:46.335Z,102775.75
2023-04-02T13:19:33.523Z,102777.38
2023-04-02T13:22:03.095Z,102775.34
2023-04-02T13:24:32.607Z,102774.25
2023-04-02T13:27:01.631Z,102788.53
2023-04-02T13:29:28.564Z,102780.56
2023-04-02T13:32:01.841Z,102786.06
2023-04-02T13:34:28.928Z,102781.75
2023-04-02T13:36:57.487Z,102782.66
2023-04-02T13:39:24.802Z,102797.16
2023-04-02T13:42:03.287Z,102775.09
2023-04-02T13:44:32.490Z,102785.63
2023-04-02T13:46:59.895Z,102776.69
2023-04-02T13:49:27.816Z,102779.91
2023-04-02T13:52:00.963Z,102774.25
2023-04-02T13:54:49.126Z,102776.09
2023-04-02T13:57:16.118Z,102773.25
2023-04-02T13:59:43.008Z,102782.91
2023-04-02T14:02:14.377Z,102787.28
2023-04-02T14:04:48.690Z,102777.41
2023-04-02T14:07:32.661Z,102791.56
2023-04-02T14:10:28.714Z,102797.44
2023-04-02T14:13:08.444Z,102787.97
2023-04-02T14:16:04.752Z,102783.38
2023-04-02T14:18:46.402Z,102797.72
2023-04-02T14:21:43.221Z,102788.22
2023-04-02T14:24:19.182Z,102798.44
2023-04-02T14:26:57.904Z,102806.13
2023-04-02T14:30:03.628Z,102802.16
2023-04-02T14:32:55.042Z,102797.28
2023-04-02T14:35:28.904Z,102793.63
2023-04-02T14:37:58.717Z,102808.72
2023-04-02T14:40:49.684Z,102805.34
2023-04-02T14:43:23.826Z,102800.72
2023-04-02T14:46:00.373Z,102803.69
2023-04-02T14:48:36.255Z,102803.50
2023-04-02T14:51:18.469Z,102797.66
2023-04-02T14:53:58.323Z,102800.06
2023-04-02T14:56:26.077Z,102801.97
2023-04-02T14:59:22.826Z,102807.94
2023-04-02T15:01:54.724Z,102804.03
2023-04-02T15:04:31.129Z,102798.78
2023-04-02T15:07:05.731Z,102819.03
2023-04-02T15:09:38.932Z,102819.06
2023-04-02T15:12:23.812Z,102817.72
2023-04-02T15:15:40.042Z,102820.78
2023-04-02T15:18:17.627Z,102817.75
2023-04-02T15:21:08.585Z,102825.72
2023-04-02T15:23:44.297Z,102830.88
2023-04-02T15:26:13.849Z,102824.84
2023-04-02T15:29:29.024Z,102828.56
2023-04-02T15:32:16.149Z,102828.59
2023-04-02T15:34:57.798Z,102829.31
2023-04-02T15:37:49.248Z,102827.59
2023-04-02T15:40:21.874Z,102833.44
2023-04-02T15:43:14.619Z,102835.97
2023-04-02T15:46:04.602Z,102840.91
2023-04-02T15:48:55.284Z,102843.41
2023-04-02T15:51:33.187Z,102841.34
2023-04-02T15:54:20.934Z,102852.59
2023-04-02T15:57:18.776Z,102863.28
2023-04-02T16:00:04.078Z,102854.84
2023-04-02T16:02:46.266Z,102863.88
2023-04-02T16:06:13.105Z,102861.28
2023-04-02T16:08:45.142Z,102869.44
2023-04-02T16:11:14.913Z,102874.94
2023-04-02T16:13:43.954Z,102874.28
2023-04-02T16:16:26.030Z,102880.88
2023-04-02T16:19:16.631Z,102870.22
2023-04-02T16:21:54.615Z,102879.88
2023-04-02T16:24:21.494Z,102884.00
2023-04-02T16:26:57.726Z,102884.53
2023-04-02T16:29:27.481Z,102893.16
2023-04-02T16:32:05.846Z,102887.63
2023-04-02T16:35:01.792Z,102893.38
2023-04-02T16:38:24.508Z,102897.94
2023-04-02T16:41:07.680Z,102900.16
2023-04-02T16:43:49.408Z,102900.16
2023-04-02T16:47:10.385Z,102908.44
2023-04-02T16:49:47.293Z,102921.09
2023-04-02T16:52:13.926Z,102923.56
2023-04-02T16:55:12.676Z,102918.81
2023-04-02T16:58:06.782Z,102927.00
2023-04-02T17:00:50.309Z,102925.34
2023-04-02T17:03:41.997Z,102935.63
2023-04-02T17:06:29.854Z,102939.84
2023-04-02T17:09:05.857Z,102948.28
2023-04-02T17:11:48.353Z,102959.47
2023-04-02T17:14:21.016Z,102967.50
2023-04-02T17:16:51.568Z,102977.28
2023-04-02T17:19:20.979Z,102974.56
2023-04-02T17:21:52.299Z,102976.88
2023-04-02T17:24:28.278Z,102975.97
2023-04-02T17:27:00.902Z,102970.56
2023-04-02T17:29:35.957Z,102973.38
2023-04-02T17:32:06.349Z,102980.16
2023-04-02T17:34:33.123Z,102987.63
2023-04-02T17:37:23.940Z,102984.84
2023-04-02T17:40:02.590Z,102991.06
2023-04-02T17:42:35.427Z,102993.06
2023-04-02T17:45:11.129Z,102993.69
2023-04-02T17:48:13.157Z,102993.25
2023-04-02T17:50:49.403Z,102996.75
2023-04-02T17:53:25.227Z,103003.84
2023-04-02T17:56:27.946Z,103009.31
2023-04-02T17:59:49.043Z,103013.97
2023-04-02T18:02:43.664Z,103018.03
2023-04-02T18:05:10.654Z,103019.22
2023-04-02T18:07:47.027Z,103018.50
2023-04-02T18:10:25.176Z,103025.56
2023-04-02T18:12:55.527Z,103043.34
2023-04-02T18:15:58.420Z,103040.31
2023-04-02T18:18:50.179Z,103046.75
2023-04-02T18:21:58.365Z,103050.81
2023-04-02T18:24:43.172Z,103051.63
2023-04-02T18:27:22.076Z,103056.94
2023-04-02T18:29:48.810Z,103074.56
2023-04-02T18:32:53.030Z,103070.56
2023-04-02T18:35:25.903Z,103073.00
2023-04-02T18:38:13.716Z,103082.72
2023-04-02T18:41:05.360Z,103082.00
2023-04-02T18:43:44.141Z,103085.34
2023-04-02T18:46:22.970Z,103095.19
2023-04-02T18:49:00.098Z,103099.81
2023-04-02T18:51:32.097Z,103107.50
2023-04-02T18:54:35.800Z,103118.59
2023-04-02T18:57:14.832Z,103128.69
2023-04-02T18:59:48.955Z,103128.59
2023-04-02T19:02:34.538Z,103130.22
2023-04-02T19:05:13.848Z,103133.78
2023-04-02T19:07:43.659Z,103135.19
2023-04-02T19:10:31.937Z,103147.75
2023-04-02T19:12:58.641Z,103148.34
2023-04-02T19:15:38.651Z,103165.03
2023-04-02T19:18:28.565Z,103161.16
2023-04-02T19:21:07.084Z,103164.88
2023-04-02T19:23:37.753Z,103166.56
2023-04-02T19:26:14.335Z,103171.22
2023-04-02T19:28:46.630Z,103169.00
2023-04-02T19:31:33.871Z,103168.84
2023-04-02T19:34:12.044Z,103175.19
2023-04-02T19:37:02.052Z,103185.66
2023-04-02T19:39:53.866Z,103181.66
2023-04-02T19:42:29.831Z,103188.44
2023-04-02T19:44:57.252Z,103187.69
2023-04-02T19:47:24.773Z,103185.63
2023-04-02T19:49:51.896Z,103195.44
2023-04-02T19:52:19.708Z,103199.16
2023-04-02T19:54:46.519Z,103201.47
2023-04-02T19:57:15.790Z,103205.41
2023-04-02T19:59:42.702Z,103208.25
2023-04-02T20:02:10.796Z,103205.44
2023-04-02T20:04:38.042Z,103206.25
2023-04-02T20:07:04.776Z,103210.56
2023-04-02T20:09:31.559Z,103206.75
2023-04-02T20:11:58.391Z,103213.91
2023-04-02T20:14:25.078Z,103220.06
2023-04-02T20:16:52.133Z,103214.75
2023-04-02T20:19:19.044Z,103222.72
2023-04-02T20:21:45.848Z,103231.94
2023-04-02T20:24:12.614Z,103231.75
2023-04-02T20:26:39.379Z,103225.84
2023-04-02T20:29:06.150Z,103221.56
2023-04-02T20:31:34.622Z,103233.63
2023-04-02T20:34:02.966Z,103242.81
2023-04-02T20:36:30.246Z,103235.88
2023-04-02T20:38:57.713Z,103243.25
2023-04-02T20:41:24.676Z,103249.97
2023-04-02T20:43:51.575Z,103248.13
2023-04-02T20:46:18.455Z,103254.28
2023-04-02T20:48:45.451Z,103258.19
2023-04-02T20:51:14.820Z,103256.34
2023-04-02T20:53:41.663Z,103264.53
2023-04-02T20:56:14.661Z,103265.34
2023-04-02T20:58:42.359Z,103266.16
2023-04-02T21:01:16.393Z,103270.28
2023-04-02T21:03:43.933Z,103278.88
2023-04-02T21:06:16.007Z,103280.69
2023-04-02T21:08:43.452Z,103286.63
2023-04-02T21:11:11.011Z,103294.19
2023-04-02T21:13:38.628Z,103292.16
2023-04-02T21:16:21.860Z,103295.63
2023-04-02T21:18:51.509Z,103302.19
2023-04-02T21:21:19.507Z,103301.97
2023-04-02T21:23:46.901Z,103298.31
2023-04-02T21:26:16.902Z,103304.44
2023-04-02T21:28:44.554Z,103309.34
2023-04-02T21:31:38.093Z,103305.69
2023-04-02T21:34:06.267Z,103312.00
2023-04-02T21:36:35.892Z,103319.78
2023-04-02T21:39:06.249Z,103320.56
2023-04-02T21:41:38.997Z,103329.16
2023-04-02T21:44:07.597Z,103323.66
2023-04-02T21:46:39.729Z,103326.69
2023-04-02T21:49:08.562Z,103337.50
2023-04-02T21:51:37.150Z,103335.06
2023-04-02T21:54:04.212Z,103337.72
2023-04-02T21:56:33.500Z,103340.78
2023-04-02T21:59:02.207Z,103348.31
2023-04-02T22:01:35.704Z,103339.75
2023-04-02T22:04:05.312Z,103346.88
2023-04-02T22:06:37.025Z,103350.16
2023-04-02T22:09:07.231Z,103352.19
2023-04-02T22:11:36.973Z,103341.56
2023-04-02T22:14:04.836Z,103350.09
2023-04-02T22:16:33.756Z,103360.09
2023-04-02T22:19:02.389Z,103351.31
2023-04-02T22:21:31.253Z,103356.41
2023-04-02T22:24:02.422Z,103364.34
2023-04-02T22:26:31.421Z,103364.53
2023-04-02T22:28:58.814Z,103370.47
2023-04-02T22:31:28.543Z,103371.47
2023-04-02T22:33:57.036Z,103372.06
2023-04-02T22:36:25.069Z,103370.63
2023-04-02T22:38:52.042Z,103376.72
2023-04-02T22:41:25.800Z,103373.25
2023-04-02T22:43:55.766Z,103379.56
2023-04-02T22:46:23.091Z,103385.84
2023-04-02T22:48:50.436Z,103383.56
2023-04-02T22:51:20.099Z,103382.34
2023-04-02T22:53:47.147Z,103389.88
2023-04-02T22:56:20.331Z,103387.41
2023-04-02T22:58:47.058Z,103390.03
2023-04-02T23:01:43.667Z,103391.22
2023-04-02T23:04:10.455Z,103398.16
2023-04-02T23:06:37.130Z,103390.81
2023-04-02T23:09:04.358Z,103396.88
2023-04-02T23:11:31.035Z,103403.59
2023-04-02T23:13:58.433Z,103404.56
2023-04-02T23:16:28.455Z,103406.00
2023-04-02T23:18:56.617Z,103409.66
2023-04-02T23:21:24.813Z,103405.31
2023-04-02T23:23:52.144Z,103419.38
2023-04-02T23:26:21.972Z,103407.09
2023-04-02T23:28:49.656Z,103417.28
2023-04-02T23:31:19.829Z,103417.00
2023-04-02T23:33:46.538Z,103413.75
2023-04-02T23:36:33.653Z,103413.47
2023-04-02T23:39:09.662Z,103415.72
2023-04-02T23:41:38.328Z,103419.19
2023-04-02T23:44:05.394Z,103425.84
2023-04-02T23:46:33.118Z,103424.59
2023-04-02T23:49:00.839Z,103427.81
2023-04-02T23:51:29.124Z,103421.47
2023-04-02T23:53:56.485Z,103429.56
2023-04-02T23:56:23.307Z,103430.16
2023-04-02T23:58:51.050Z,103427.03
